sensor_id;sensor_type;location;lat;lon;timestamp;P1;durP1;ratioP1;P2;durP2;ratioP2
69894;SDS011;57172;52.034;5.090;2023-09-18T00:00:43;31.65;;;18.30;;
69894;SDS011;57172;52.034;5.090;2023-09-18T00:03:11;32.35;;;17.83;;
69894;SDS011;57172;52.034;5.090;2023-09-18T00:05:38;33.03;;;18.20;;
69894;SDS011;57172;52.034;5.090;2023-09-18T00:08:05;29.57;;;17.60;;
69894;SDS011;57172;52.034;5.090;2023-09-18T00:10:32;35.67;;;17.88;;
69894;SDS011;57172;52.034;5.090;2023-09-18T00:12:59;34.13;;;17.90;;
69894;SDS011;57172;52.034;5.090;2023-09-18T00:15:27;33.92;;;18.15;;
69894;SDS011;57172;52.034;5.090;2023-09-18T00:17:54;30.23;;;17.77;;
69894;SDS011;57172;52.034;5.090;2023-09-18T00:20:21;31.37;;;17.63;;
69894;SDS011;57172;52.034;5.090;2023-09-18T00:22:53;30.55;;;17.05;;
69894;SDS011;57172;52.034;5.090;2023-09-18T00:25:21;32.90;;;17.63;;
69894;SDS011;57172;52.034;5.090;2023-09-18T00:27:49;30.67;;;17.27;;
69894;SDS011;57172;52.034;5.090;2023-09-18T00:30:18;28.70;;;16.88;;
69894;SDS011;57172;52.034;5.090;2023-09-18T00:32:45;30.30;;;16.73;;
69894;SDS011;57172;52.034;5.090;2023-09-18T00:35:13;30.73;;;17.60;;
69894;SDS011;57172;52.034;5.090;2023-09-18T00:37:40;29.00;;;17.15;;
69894;SDS011;57172;52.034;5.090;2023-09-18T00:40:09;30.02;;;16.70;;
69894;SDS011;57172;52.034;5.090;2023-09-18T00:42:37;32.22;;;16.88;;
69894;SDS011;57172;52.034;5.090;2023-09-18T00:45:04;31.80;;;17.10;;
69894;SDS011;57172;52.034;5.090;2023-09-18T00:47:32;30.42;;;17.17;;
69894;SDS011;57172;52.034;5.090;2023-09-18T00:49:59;36.13;;;17.83;;
69894;SDS011;57172;52.034;5.090;2023-09-18T00:52:26;30.58;;;17.65;;
69894;SDS011;57172;52.034;5.090;2023-09-18T00:54:54;35.40;;;16.88;;
69894;SDS011;57172;52.034;5.090;2023-09-18T00:57:22;28.23;;;17.13;;
69894;SDS011;57172;52.034;5.090;2023-09-18T00:59:49;30.17;;;17.40;;
69894;SDS011;57172;52.034;5.090;2023-09-18T01:02:17;29.88;;;16.45;;
69894;SDS011;57172;52.034;5.090;2023-09-18T01:04:47;29.58;;;16.25;;
69894;SDS011;57172;52.034;5.090;2023-09-18T01:07:15;33.53;;;16.80;;
69894;SDS011;57172;52.034;5.090;2023-09-18T01:09:42;28.80;;;16.00;;
69894;SDS011;57172;52.034;5.090;2023-09-18T01:17:36;31.08;;;16.50;;
69894;SDS011;57172;52.034;5.090;2023-09-18T01:20:05;27.58;;;16.15;;
69894;SDS011;57172;52.034;5.090;2023-09-18T01:22:35;24.90;;;15.80;;
69894;SDS011;57172;52.034;5.090;2023-09-18T01:25:02;29.65;;;15.65;;
69894;SDS011;57172;52.034;5.090;2023-09-18T01:27:29;25.67;;;15.50;;
69894;SDS011;57172;52.034;5.090;2023-09-18T01:29:56;27.33;;;16.23;;
69894;SDS011;57172;52.034;5.090;2023-09-18T01:32:24;28.70;;;16.40;;
69894;SDS011;57172;52.034;5.090;2023-09-18T01:34:54;30.60;;;17.27;;
69894;SDS011;57172;52.034;5.090;2023-09-18T01:37:24;24.77;;;15.82;;
69894;SDS011;57172;52.034;5.090;2023-09-18T01:39:53;30.20;;;17.73;;
69894;SDS011;57172;52.034;5.090;2023-09-18T01:42:26;32.08;;;18.05;;
69894;SDS011;57172;52.034;5.090;2023-09-18T01:44:54;29.08;;;17.42;;
69894;SDS011;57172;52.034;5.090;2023-09-18T01:47:21;28.93;;;17.03;;
69894;SDS011;57172;52.034;5.090;2023-09-18T01:49:53;30.77;;;17.48;;
69894;SDS011;57172;52.034;5.090;2023-09-18T01:52:20;31.23;;;18.00;;
69894;SDS011;57172;52.034;5.090;2023-09-18T01:54:48;28.92;;;17.13;;
69894;SDS011;57172;52.034;5.090;2023-09-18T01:57:15;33.00;;;17.75;;
69894;SDS011;57172;52.034;5.090;2023-09-18T01:59:42;30.03;;;17.50;;
69894;SDS011;57172;52.034;5.090;2023-09-18T02:02:12;34.95;;;18.75;;
69894;SDS011;57172;52.034;5.090;2023-09-18T02:04:54;32.67;;;17.65;;
69894;SDS011;57172;52.034;5.090;2023-09-18T02:07:34;35.25;;;18.48;;
69894;SDS011;57172;52.034;5.090;2023-09-18T02:10:01;33.95;;;17.90;;
69894;SDS011;57172;52.034;5.090;2023-09-18T02:12:29;33.03;;;19.10;;
69894;SDS011;57172;52.034;5.090;2023-09-18T02:15:00;32.03;;;18.13;;
69894;SDS011;57172;52.034;5.090;2023-09-18T02:17:30;30.33;;;17.55;;
69894;SDS011;57172;52.034;5.090;2023-09-18T02:19:58;29.73;;;17.20;;
69894;SDS011;57172;52.034;5.090;2023-09-18T02:22:27;31.38;;;16.48;;
69894;SDS011;57172;52.034;5.090;2023-09-18T02:24:54;28.43;;;16.90;;
69894;SDS011;57172;52.034;5.090;2023-09-18T02:27:21;28.85;;;16.27;;
69894;SDS011;57172;52.034;5.090;2023-09-18T02:29:48;28.77;;;17.25;;
69894;SDS011;57172;52.034;5.090;2023-09-18T02:32:16;27.92;;;16.83;;
69894;SDS011;57172;52.034;5.090;2023-09-18T02:34:43;30.38;;;16.73;;
69894;SDS011;57172;52.034;5.090;2023-09-18T02:37:10;29.17;;;15.83;;
69894;SDS011;57172;52.034;5.090;2023-09-18T02:39:37;26.90;;;16.52;;
69894;SDS011;57172;52.034;5.090;2023-09-18T02:42:04;30.77;;;15.90;;
69894;SDS011;57172;52.034;5.090;2023-09-18T02:44:31;29.65;;;16.08;;
69894;SDS011;57172;52.034;5.090;2023-09-18T02:46:58;27.25;;;16.02;;
69894;SDS011;57172;52.034;5.090;2023-09-18T02:49:25;29.07;;;15.30;;
69894;SDS011;57172;52.034;5.090;2023-09-18T02:51:53;26.92;;;15.35;;
69894;SDS011;57172;52.034;5.090;2023-09-18T02:54:20;24.23;;;14.68;;
69894;SDS011;57172;52.034;5.090;2023-09-18T02:56:47;27.08;;;15.85;;
69894;SDS011;57172;52.034;5.090;2023-09-18T02:59:14;28.90;;;15.50;;
69894;SDS011;57172;52.034;5.090;2023-09-18T03:01:42;26.07;;;15.70;;
69894;SDS011;57172;52.034;5.090;2023-09-18T03:04:09;26.10;;;14.75;;
69894;SDS011;57172;52.034;5.090;2023-09-18T03:06:37;26.88;;;14.55;;
69894;SDS011;57172;52.034;5.090;2023-09-18T03:09:06;26.17;;;15.15;;
69894;SDS011;57172;52.034;5.090;2023-09-18T03:11:33;24.13;;;13.80;;
69894;SDS011;57172;52.034;5.090;2023-09-18T03:14:00;26.63;;;14.67;;
69894;SDS011;57172;52.034;5.090;2023-09-18T03:16:28;26.45;;;15.15;;
69894;SDS011;57172;52.034;5.090;2023-09-18T03:18:59;27.83;;;15.00;;
69894;SDS011;57172;52.034;5.090;2023-09-18T03:21:26;30.58;;;15.05;;
69894;SDS011;57172;52.034;5.090;2023-09-18T03:23:53;27.70;;;14.43;;
69894;SDS011;57172;52.034;5.090;2023-09-18T03:26:21;22.70;;;13.90;;
69894;SDS011;57172;52.034;5.090;2023-09-18T03:28:48;24.65;;;15.10;;
69894;SDS011;57172;52.034;5.090;2023-09-18T03:31:15;24.77;;;14.63;;
69894;SDS011;57172;52.034;5.090;2023-09-18T03:33:42;22.60;;;14.02;;
69894;SDS011;57172;52.034;5.090;2023-09-18T03:36:10;23.50;;;12.77;;
69894;SDS011;57172;52.034;5.090;2023-09-18T03:38:37;23.80;;;13.40;;
69894;SDS011;57172;52.034;5.090;2023-09-18T03:41:06;24.63;;;12.73;;
69894;SDS011;57172;52.034;5.090;2023-09-18T03:43:33;20.33;;;12.57;;
69894;SDS011;57172;52.034;5.090;2023-09-18T03:46:04;20.67;;;10.98;;
69894;SDS011;57172;52.034;5.090;2023-09-18T03:48:38;19.67;;;11.07;;
69894;SDS011;57172;52.034;5.090;2023-09-18T03:51:05;17.50;;;9.83;;
69894;SDS011;57172;52.034;5.090;2023-09-18T03:53:36;17.90;;;9.35;;
69894;SDS011;57172;52.034;5.090;2023-09-18T03:56:04;16.05;;;9.30;;
69894;SDS011;57172;52.034;5.090;2023-09-18T03:58:31;16.52;;;9.80;;
69894;SDS011;57172;52.034;5.090;2023-09-18T04:01:01;23.25;;;9.27;;
69894;SDS011;57172;52.034;5.090;2023-09-18T04:03:29;18.97;;;9.17;;
69894;SDS011;57172;52.034;5.090;2023-09-18T04:05:57;12.25;;;6.93;;
69894;SDS011;57172;52.034;5.090;2023-09-18T04:08:24;10.98;;;5.47;;
69894;SDS011;57172;52.034;5.090;2023-09-18T04:10:53;6.45;;;3.60;;
69894;SDS011;57172;52.034;5.090;2023-09-18T04:13:23;7.38;;;3.33;;
69894;SDS011;57172;52.034;5.090;2023-09-18T04:15:51;5.57;;;3.07;;
69894;SDS011;57172;52.034;5.090;2023-09-18T04:18:23;6.60;;;3.05;;
69894;SDS011;57172;52.034;5.090;2023-09-18T04:20:50;6.68;;;3.20;;
69894;SDS011;57172;52.034;5.090;2023-09-18T04:23:20;7.15;;;4.10;;
69894;SDS011;57172;52.034;5.090;2023-09-18T04:25:52;11.38;;;5.53;;
69894;SDS011;57172;52.034;5.090;2023-09-18T04:28:21;13.30;;;6.90;;
69894;SDS011;57172;52.034;5.090;2023-09-18T04:30:49;17.48;;;8.45;;
69894;SDS011;57172;52.034;5.090;2023-09-18T04:33:17;15.82;;;8.70;;
69894;SDS011;57172;52.034;5.090;2023-09-18T04:35:44;18.88;;;9.20;;
69894;SDS011;57172;52.034;5.090;2023-09-18T04:38:13;18.05;;;9.45;;
69894;SDS011;57172;52.034;5.090;2023-09-18T04:40:43;14.67;;;8.97;;
69894;SDS011;57172;52.034;5.090;2023-09-18T04:43:12;16.30;;;9.10;;
69894;SDS011;57172;52.034;5.090;2023-09-18T04:45:39;18.23;;;9.10;;
69894;SDS011;57172;52.034;5.090;2023-09-18T04:48:06;15.52;;;8.80;;
69894;SDS011;57172;52.034;5.090;2023-09-18T04:50:35;17.00;;;9.27;;
69894;SDS011;57172;52.034;5.090;2023-09-18T04:53:02;15.40;;;9.07;;
69894;SDS011;57172;52.034;5.090;2023-09-18T04:55:30;17.08;;;9.75;;
69894;SDS011;57172;52.034;5.090;2023-09-18T04:57:58;14.80;;;8.68;;
69894;SDS011;57172;52.034;5.090;2023-09-18T05:00:26;14.63;;;8.88;;
69894;SDS011;57172;52.034;5.090;2023-09-18T05:02:56;20.25;;;9.07;;
69894;SDS011;57172;52.034;5.090;2023-09-18T05:05:23;14.67;;;9.50;;
69894;SDS011;57172;52.034;5.090;2023-09-18T05:07:51;15.57;;;9.50;;
69894;SDS011;57172;52.034;5.090;2023-09-18T05:10:18;18.20;;;10.10;;
69894;SDS011;57172;52.034;5.090;2023-09-18T05:12:45;17.55;;;9.82;;
69894;SDS011;57172;52.034;5.090;2023-09-18T05:15:12;18.77;;;10.38;;
69894;SDS011;57172;52.034;5.090;2023-09-18T05:17:43;20.67;;;10.23;;
69894;SDS011;57172;52.034;5.090;2023-09-18T05:20:15;18.90;;;10.77;;
69894;SDS011;57172;52.034;5.090;2023-09-18T05:22:44;25.30;;;10.93;;
69894;SDS011;57172;52.034;5.090;2023-09-18T05:25:12;22.45;;;10.60;;
69894;SDS011;57172;52.034;5.090;2023-09-18T05:27:41;17.83;;;10.63;;
69894;SDS011;57172;52.034;5.090;2023-09-18T05:30:16;20.17;;;10.97;;
69894;SDS011;57172;52.034;5.090;2023-09-18T05:32:48;20.30;;;10.55;;
69894;SDS011;57172;52.034;5.090;2023-09-18T05:35:15;22.80;;;11.38;;
69894;SDS011;57172;52.034;5.090;2023-09-18T05:37:43;22.63;;;11.32;;
69894;SDS011;57172;52.034;5.090;2023-09-18T05:40:11;22.80;;;11.27;;
69894;SDS011;57172;52.034;5.090;2023-09-18T05:42:40;21.33;;;11.30;;
69894;SDS011;57172;52.034;5.090;2023-09-18T05:45:12;20.40;;;11.40;;
69894;SDS011;57172;52.034;5.090;2023-09-18T05:47:41;22.08;;;11.15;;
69894;SDS011;57172;52.034;5.090;2023-09-18T05:50:09;21.00;;;10.70;;
69894;SDS011;57172;52.034;5.090;2023-09-18T05:52:44;19.45;;;9.85;;
69894;SDS011;57172;52.034;5.090;2023-09-18T05:55:12;19.90;;;10.13;;
69894;SDS011;57172;52.034;5.090;2023-09-18T05:57:40;19.38;;;10.52;;
69894;SDS011;57172;52.034;5.090;2023-09-18T06:00:08;18.92;;;9.85;;
69894;SDS011;57172;52.034;5.090;2023-09-18T06:02:39;18.95;;;9.35;;
69894;SDS011;57172;52.034;5.090;2023-09-18T06:05:07;17.98;;;10.15;;
69894;SDS011;57172;52.034;5.090;2023-09-18T06:07:38;16.60;;;9.47;;
69894;SDS011;57172;52.034;5.090;2023-09-18T06:10:05;14.45;;;8.00;;
69894;SDS011;57172;52.034;5.090;2023-09-18T06:12:32;13.32;;;8.10;;
69894;SDS011;57172;52.034;5.090;2023-09-18T06:14:59;14.65;;;8.27;;
69894;SDS011;57172;52.034;5.090;2023-09-18T06:17:26;13.77;;;7.00;;
69894;SDS011;57172;52.034;5.090;2023-09-18T06:19:53;11.40;;;7.23;;
69894;SDS011;57172;52.034;5.090;2023-09-18T06:22:21;10.38;;;6.38;;
69894;SDS011;57172;52.034;5.090;2023-09-18T06:24:49;12.40;;;6.18;;
69894;SDS011;57172;52.034;5.090;2023-09-18T06:27:16;11.15;;;5.88;;
69894;SDS011;57172;52.034;5.090;2023-09-18T06:29:43;11.63;;;6.07;;
69894;SDS011;57172;52.034;5.090;2023-09-18T06:32:10;9.70;;;5.70;;
69894;SDS011;57172;52.034;5.090;2023-09-18T06:34:36;10.60;;;5.93;;
69894;SDS011;57172;52.034;5.090;2023-09-18T06:37:04;12.20;;;5.82;;
69894;SDS011;57172;52.034;5.090;2023-09-18T06:39:34;11.48;;;5.53;;
69894;SDS011;57172;52.034;5.090;2023-09-18T06:42:00;9.68;;;5.20;;
69894;SDS011;57172;52.034;5.090;2023-09-18T06:44:28;11.47;;;5.73;;
69894;SDS011;57172;52.034;5.090;2023-09-18T06:46:55;8.75;;;5.15;;
69894;SDS011;57172;52.034;5.090;2023-09-18T06:49:22;12.38;;;5.68;;
69894;SDS011;57172;52.034;5.090;2023-09-18T06:51:49;11.40;;;6.07;;
69894;SDS011;57172;52.034;5.090;2023-09-18T06:54:16;10.35;;;5.95;;
69894;SDS011;57172;52.034;5.090;2023-09-18T06:56:43;10.50;;;5.63;;
69894;SDS011;57172;52.034;5.090;2023-09-18T06:59:11;9.60;;;5.88;;
69894;SDS011;57172;52.034;5.090;2023-09-18T07:01:39;11.20;;;6.03;;
69894;SDS011;57172;52.034;5.090;2023-09-18T07:04:07;13.65;;;6.22;;
69894;SDS011;57172;52.034;5.090;2023-09-18T07:06:35;13.25;;;5.63;;
69894;SDS011;57172;52.034;5.090;2023-09-18T07:09:03;8.40;;;4.93;;
69894;SDS011;57172;52.034;5.090;2023-09-18T07:11:33;11.77;;;5.10;;
69894;SDS011;57172;52.034;5.090;2023-09-18T07:14:01;9.07;;;5.38;;
69894;SDS011;57172;52.034;5.090;2023-09-18T07:16:33;10.88;;;5.38;;
69894;SDS011;57172;52.034;5.090;2023-09-18T07:19:10;10.82;;;5.55;;
69894;SDS011;57172;52.034;5.090;2023-09-18T07:21:38;7.17;;;3.97;;
69894;SDS011;57172;52.034;5.090;2023-09-18T07:24:08;10.18;;;5.55;;
69894;SDS011;57172;52.034;5.090;2023-09-18T07:26:36;8.73;;;5.32;;
69894;SDS011;57172;52.034;5.090;2023-09-18T07:29:03;10.27;;;6.10;;
69894;SDS011;57172;52.034;5.090;2023-09-18T07:31:30;9.52;;;4.90;;
69894;SDS011;57172;52.034;5.090;2023-09-18T07:33:57;10.13;;;5.67;;
69894;SDS011;57172;52.034;5.090;2023-09-18T07:36:25;9.65;;;5.35;;
69894;SDS011;57172;52.034;5.090;2023-09-18T07:38:52;9.98;;;5.93;;
69894;SDS011;57172;52.034;5.090;2023-09-18T07:41:21;12.63;;;5.30;;
69894;SDS011;57172;52.034;5.090;2023-09-18T07:43:49;10.52;;;5.15;;
69894;SDS011;57172;52.034;5.090;2023-09-18T07:46:16;9.53;;;5.53;;
69894;SDS011;57172;52.034;5.090;2023-09-18T07:48:43;11.13;;;5.05;;
69894;SDS011;57172;52.034;5.090;2023-09-18T07:51:11;11.80;;;6.53;;
69894;SDS011;57172;52.034;5.090;2023-09-18T07:53:40;9.30;;;5.38;;
69894;SDS011;57172;52.034;5.090;2023-09-18T07:56:07;8.82;;;5.25;;
69894;SDS011;57172;52.034;5.090;2023-09-18T07:58:35;10.90;;;5.27;;
69894;SDS011;57172;52.034;5.090;2023-09-18T08:01:05;9.50;;;5.10;;
69894;SDS011;57172;52.034;5.090;2023-09-18T08:03:32;8.90;;;5.18;;
69894;SDS011;57172;52.034;5.090;2023-09-18T08:05:59;10.55;;;5.18;;
69894;SDS011;57172;52.034;5.090;2023-09-18T08:08:26;8.48;;;5.18;;
69894;SDS011;57172;52.034;5.090;2023-09-18T08:10:53;8.33;;;4.63;;
69894;SDS011;57172;52.034;5.090;2023-09-18T08:13:20;9.20;;;4.35;;
69894;SDS011;57172;52.034;5.090;2023-09-18T08:15:49;9.77;;;4.85;;
69894;SDS011;57172;52.034;5.090;2023-09-18T08:18:19;10.95;;;4.80;;
69894;SDS011;57172;52.034;5.090;2023-09-18T08:20:47;11.02;;;4.72;;
69894;SDS011;57172;52.034;5.090;2023-09-18T08:23:17;7.67;;;4.57;;
69894;SDS011;57172;52.034;5.090;2023-09-18T08:25:44;10.68;;;4.80;;
69894;SDS011;57172;52.034;5.090;2023-09-18T08:28:11;7.63;;;4.30;;
69894;SDS011;57172;52.034;5.090;2023-09-18T08:30:41;8.63;;;4.25;;
69894;SDS011;57172;52.034;5.090;2023-09-18T08:33:11;6.32;;;3.90;;
69894;SDS011;57172;52.034;5.090;2023-09-18T08:35:38;7.70;;;3.80;;
69894;SDS011;57172;52.034;5.090;2023-09-18T08:38:06;7.60;;;3.63;;
69894;SDS011;57172;52.034;5.090;2023-09-18T08:40:33;7.75;;;3.80;;
69894;SDS011;57172;52.034;5.090;2023-09-18T08:43:01;8.30;;;3.60;;
69894;SDS011;57172;52.034;5.090;2023-09-18T08:45:46;7.28;;;3.15;;
69894;SDS011;57172;52.034;5.090;2023-09-18T08:48:19;6.87;;;3.60;;
69894;SDS011;57172;52.034;5.090;2023-09-18T08:50:49;7.30;;;3.75;;
69894;SDS011;57172;52.034;5.090;2023-09-18T08:53:18;6.18;;;3.63;;
69894;SDS011;57172;52.034;5.090;2023-09-18T08:55:45;5.82;;;3.53;;
69894;SDS011;57172;52.034;5.090;2023-09-18T08:58:12;7.55;;;3.50;;
69894;SDS011;57172;52.034;5.090;2023-09-18T09:00:40;7.13;;;3.60;;
69894;SDS011;57172;52.034;5.090;2023-09-18T09:03:07;6.30;;;3.70;;
69894;SDS011;57172;52.034;5.090;2023-09-18T09:05:36;8.18;;;3.50;;
69894;SDS011;57172;52.034;5.090;2023-09-18T09:08:03;6.97;;;3.53;;
69894;SDS011;57172;52.034;5.090;2023-09-18T09:10:33;7.68;;;4.00;;
69894;SDS011;57172;52.034;5.090;2023-09-18T09:13:01;7.77;;;4.20;;
69894;SDS011;57172;52.034;5.090;2023-09-18T09:15:31;6.78;;;4.25;;
69894;SDS011;57172;52.034;5.090;2023-09-18T09:18:05;7.20;;;4.35;;
69894;SDS011;57172;52.034;5.090;2023-09-18T09:20:34;7.53;;;4.43;;
69894;SDS011;57172;52.034;5.090;2023-09-18T09:23:03;8.70;;;5.15;;
69894;SDS011;57172;52.034;5.090;2023-09-18T09:25:31;8.70;;;5.20;;
69894;SDS011;57172;52.034;5.090;2023-09-18T09:28:02;9.60;;;5.70;;
69894;SDS011;57172;52.034;5.090;2023-09-18T09:30:32;7.10;;;4.80;;
69894;SDS011;57172;52.034;5.090;2023-09-18T09:33:00;8.85;;;6.03;;
69894;SDS011;57172;52.034;5.090;2023-09-18T09:35:30;8.00;;;5.55;;
69894;SDS011;57172;52.034;5.090;2023-09-18T09:38:01;7.87;;;6.40;;
69894;SDS011;57172;52.034;5.090;2023-09-18T09:40:42;9.95;;;7.25;;
69894;SDS011;57172;52.034;5.090;2023-09-18T09:43:13;9.82;;;6.82;;
69894;SDS011;57172;52.034;5.090;2023-09-18T09:45:41;9.48;;;6.90;;
69894;SDS011;57172;52.034;5.090;2023-09-18T09:48:09;8.98;;;6.60;;
69894;SDS011;57172;52.034;5.090;2023-09-18T09:50:46;10.03;;;6.83;;
69894;SDS011;57172;52.034;5.090;2023-09-18T09:53:15;9.63;;;6.82;;
69894;SDS011;57172;52.034;5.090;2023-09-18T09:55:42;8.05;;;6.50;;
69894;SDS011;57172;52.034;5.090;2023-09-18T09:58:09;9.73;;;6.57;;
69894;SDS011;57172;52.034;5.090;2023-09-18T10:00:48;8.35;;;5.97;;
69894;SDS011;57172;52.034;5.090;2023-09-18T10:03:19;11.03;;;6.00;;
69894;SDS011;57172;52.034;5.090;2023-09-18T10:05:49;8.02;;;5.35;;
69894;SDS011;57172;52.034;5.090;2023-09-18T10:08:24;8.23;;;5.50;;
69894;SDS011;57172;52.034;5.090;2023-09-18T10:10:54;7.15;;;4.72;;
69894;SDS011;57172;52.034;5.090;2023-09-18T10:13:31;7.10;;;4.85;;
69894;SDS011;57172;52.034;5.090;2023-09-18T10:16:04;6.13;;;3.90;;
69894;SDS011;57172;52.034;5.090;2023-09-18T10:21:33;6.35;;;4.32;;
69894;SDS011;57172;52.034;5.090;2023-09-18T10:24:15;8.02;;;4.40;;
69894;SDS011;57172;52.034;5.090;2023-09-18T10:26:50;6.63;;;3.92;;
69894;SDS011;57172;52.034;5.090;2023-09-18T10:29:22;7.80;;;4.17;;
69894;SDS011;57172;52.034;5.090;2023-09-18T10:31:52;9.30;;;4.78;;
69894;SDS011;57172;52.034;5.090;2023-09-18T10:34:21;7.45;;;4.32;;
69894;SDS011;57172;52.034;5.090;2023-09-18T10:36:50;6.35;;;4.65;;
69894;SDS011;57172;52.034;5.090;2023-09-18T10:39:20;7.85;;;4.75;;
69894;SDS011;57172;52.034;5.090;2023-09-18T10:41:54;10.17;;;5.20;;
69894;SDS011;57172;52.034;5.090;2023-09-18T10:44:23;9.07;;;5.32;;
69894;SDS011;57172;52.034;5.090;2023-09-18T10:46:51;10.15;;;5.28;;
69894;SDS011;57172;52.034;5.090;2023-09-18T10:49:19;8.95;;;4.95;;
69894;SDS011;57172;52.034;5.090;2023-09-18T10:51:47;8.90;;;5.15;;
69894;SDS011;57172;52.034;5.090;2023-09-18T10:54:15;7.57;;;4.80;;
69894;SDS011;57172;52.034;5.090;2023-09-18T10:56:46;8.80;;;5.10;;
69894;SDS011;57172;52.034;5.090;2023-09-18T10:59:14;9.15;;;5.35;;
69894;SDS011;57172;52.034;5.090;2023-09-18T11:01:42;6.47;;;4.43;;
69894;SDS011;57172;52.034;5.090;2023-09-18T11:04:11;9.82;;;4.65;;
69894;SDS011;57172;52.034;5.090;2023-09-18T11:14:42;6.18;;;3.92;;
69894;SDS011;57172;52.034;5.090;2023-09-18T11:20:06;7.53;;;3.60;;
69894;SDS011;57172;52.034;5.090;2023-09-18T11:22:47;6.70;;;3.67;;
69894;SDS011;57172;52.034;5.090;2023-09-18T11:25:30;6.53;;;3.55;;
69894;SDS011;57172;52.034;5.090;2023-09-18T11:28:01;7.38;;;3.53;;
69894;SDS011;57172;52.034;5.090;2023-09-18T11:30:29;4.60;;;3.15;;
69894;SDS011;57172;52.034;5.090;2023-09-18T11:32:56;8.13;;;3.80;;
69894;SDS011;57172;52.034;5.090;2023-09-18T11:35:24;6.47;;;3.90;;
69894;SDS011;57172;52.034;5.090;2023-09-18T11:38:10;5.22;;;3.80;;
69894;SDS011;57172;52.034;5.090;2023-09-18T11:40:38;5.30;;;3.30;;
69894;SDS011;57172;52.034;5.090;2023-09-18T11:45:52;6.27;;;3.50;;
69894;SDS011;57172;52.034;5.090;2023-09-18T11:48:22;7.18;;;4.00;;
69894;SDS011;57172;52.034;5.090;2023-09-18T11:50:57;6.32;;;3.80;;
69894;SDS011;57172;52.034;5.090;2023-09-18T11:53:27;5.65;;;3.55;;
69894;SDS011;57172;52.034;5.090;2023-09-18T11:55:54;5.72;;;4.18;;
69894;SDS011;57172;52.034;5.090;2023-09-18T11:58:22;7.37;;;4.00;;
69894;SDS011;57172;52.034;5.090;2023-09-18T12:00:50;6.88;;;4.07;;
69894;SDS011;57172;52.034;5.090;2023-09-18T12:03:18;7.45;;;4.28;;
69894;SDS011;57172;52.034;5.090;2023-09-18T12:05:56;9.70;;;4.53;;
69894;SDS011;57172;52.034;5.090;2023-09-18T12:08:25;8.65;;;5.00;;
69894;SDS011;57172;52.034;5.090;2023-09-18T12:10:54;6.53;;;4.33;;
69894;SDS011;57172;52.034;5.090;2023-09-18T12:13:24;6.07;;;3.70;;
69894;SDS011;57172;52.034;5.090;2023-09-18T12:16:01;8.15;;;4.30;;
69894;SDS011;57172;52.034;5.090;2023-09-18T12:18:32;6.57;;;3.80;;
69894;SDS011;57172;52.034;5.090;2023-09-18T12:21:07;7.32;;;3.70;;
69894;SDS011;57172;52.034;5.090;2023-09-18T12:23:38;6.67;;;3.67;;
69894;SDS011;57172;52.034;5.090;2023-09-18T12:26:05;8.15;;;3.30;;
69894;SDS011;57172;52.034;5.090;2023-09-18T12:28:36;5.95;;;2.97;;
69894;SDS011;57172;52.034;5.090;2023-09-18T12:31:03;5.68;;;3.25;;
69894;SDS011;57172;52.034;5.090;2023-09-18T12:33:34;5.63;;;3.33;;
69894;SDS011;57172;52.034;5.090;2023-09-18T12:36:03;4.70;;;2.93;;
69894;SDS011;57172;52.034;5.090;2023-09-18T12:38:31;6.03;;;3.00;;
69894;SDS011;57172;52.034;5.090;2023-09-18T12:40:59;6.30;;;3.20;;
69894;SDS011;57172;52.034;5.090;2023-09-18T12:43:36;6.07;;;3.40;;
69894;SDS011;57172;52.034;5.090;2023-09-18T12:46:06;5.10;;;3.53;;
69894;SDS011;57172;52.034;5.090;2023-09-18T12:48:37;6.30;;;3.60;;
69894;SDS011;57172;52.034;5.090;2023-09-18T12:51:08;4.68;;;3.22;;
69894;SDS011;57172;52.034;5.090;2023-09-18T12:53:35;6.25;;;3.90;;
69894;SDS011;57172;52.034;5.090;2023-09-18T12:56:06;7.00;;;4.05;;
69894;SDS011;57172;52.034;5.090;2023-09-18T12:58:39;9.00;;;4.30;;
69894;SDS011;57172;52.034;5.090;2023-09-18T13:01:27;6.23;;;4.30;;
69894;SDS011;57172;52.034;5.090;2023-09-18T13:03:54;6.72;;;4.20;;
69894;SDS011;57172;52.034;5.090;2023-09-18T13:06:32;8.80;;;4.20;;
69894;SDS011;57172;52.034;5.090;2023-09-18T13:09:17;8.52;;;4.30;;
69894;SDS011;57172;52.034;5.090;2023-09-18T13:11:55;6.53;;;4.43;;
69894;SDS011;57172;52.034;5.090;2023-09-18T13:14:26;7.93;;;4.60;;
69894;SDS011;57172;52.034;5.090;2023-09-18T13:16:59;7.28;;;4.40;;
69894;SDS011;57172;52.034;5.090;2023-09-18T13:19:27;9.98;;;4.70;;
69894;SDS011;57172;52.034;5.090;2023-09-18T13:21:55;8.00;;;4.43;;
69894;SDS011;57172;52.034;5.090;2023-09-18T13:24:25;9.32;;;4.00;;
69894;SDS011;57172;52.034;5.090;2023-09-18T13:26:54;5.77;;;3.80;;
69894;SDS011;57172;52.034;5.090;2023-09-18T13:29:22;6.05;;;4.00;;
69894;SDS011;57172;52.034;5.090;2023-09-18T13:31:50;6.85;;;3.90;;
69894;SDS011;57172;52.034;5.090;2023-09-18T13:34:18;6.50;;;4.03;;
69894;SDS011;57172;52.034;5.090;2023-09-18T13:36:45;6.07;;;3.65;;
69894;SDS011;57172;52.034;5.090;2023-09-18T13:39:12;7.53;;;3.87;;
69894;SDS011;57172;52.034;5.090;2023-09-18T13:41:43;8.68;;;3.60;;
69894;SDS011;57172;52.034;5.090;2023-09-18T13:44:11;8.90;;;3.53;;
69894;SDS011;57172;52.034;5.090;2023-09-18T13:46:38;5.13;;;3.22;;
69894;SDS011;57172;52.034;5.090;2023-09-18T13:49:05;6.95;;;3.30;;
69894;SDS011;57172;52.034;5.090;2023-09-18T13:51:33;4.93;;;3.17;;
69894;SDS011;57172;52.034;5.090;2023-09-18T13:54:00;8.68;;;2.95;;
69894;SDS011;57172;52.034;5.090;2023-09-18T13:56:27;5.53;;;2.65;;
69894;SDS011;57172;52.034;5.090;2023-09-18T13:58:57;4.20;;;2.42;;
69894;SDS011;57172;52.034;5.090;2023-09-18T14:01:24;9.00;;;2.70;;
69894;SDS011;57172;52.034;5.090;2023-09-18T14:03:53;5.70;;;2.40;;
69894;SDS011;57172;52.034;5.090;2023-09-18T14:06:20;4.47;;;2.20;;
69894;SDS011;57172;52.034;5.090;2023-09-18T14:08:48;6.60;;;2.75;;
69894;SDS011;57172;52.034;5.090;2023-09-18T14:11:15;3.58;;;2.03;;
69894;SDS011;57172;52.034;5.090;2023-09-18T14:13:42;4.22;;;2.30;;
69894;SDS011;57172;52.034;5.090;2023-09-18T14:16:09;4.43;;;1.97;;
69894;SDS011;57172;52.034;5.090;2023-09-18T14:18:37;3.53;;;2.10;;
69894;SDS011;57172;52.034;5.090;2023-09-18T14:21:05;6.57;;;2.60;;
69894;SDS011;57172;52.034;5.090;2023-09-18T14:23:32;6.45;;;2.50;;
69894;SDS011;57172;52.034;5.090;2023-09-18T14:26:01;5.00;;;2.33;;
69894;SDS011;57172;52.034;5.090;2023-09-18T14:28:28;3.20;;;2.13;;
69894;SDS011;57172;52.034;5.090;2023-09-18T14:30:55;5.10;;;2.70;;
69894;SDS011;57172;52.034;5.090;2023-09-18T14:33:22;3.92;;;2.25;;
69894;SDS011;57172;52.034;5.090;2023-09-18T14:35:49;4.18;;;2.30;;
69894;SDS011;57172;52.034;5.090;2023-09-18T14:38:16;5.70;;;2.15;;
69894;SDS011;57172;52.034;5.090;2023-09-18T14:40:43;3.73;;;2.50;;
69894;SDS011;57172;52.034;5.090;2023-09-18T14:43:10;7.07;;;2.25;;
69894;SDS011;57172;52.034;5.090;2023-09-18T14:45:38;3.70;;;2.30;;
69894;SDS011;57172;52.034;5.090;2023-09-18T14:48:06;3.95;;;1.92;;
69894;SDS011;57172;52.034;5.090;2023-09-18T14:50:33;6.88;;;2.72;;
69894;SDS011;57172;52.034;5.090;2023-09-18T14:53:00;4.77;;;2.20;;
69894;SDS011;57172;52.034;5.090;2023-09-18T14:55:28;6.97;;;2.60;;
69894;SDS011;57172;52.034;5.090;2023-09-18T14:57:54;8.32;;;3.13;;
69894;SDS011;57172;52.034;5.090;2023-09-18T15:00:21;5.68;;;2.63;;
69894;SDS011;57172;52.034;5.090;2023-09-18T15:02:48;5.10;;;2.00;;
69894;SDS011;57172;52.034;5.090;2023-09-18T15:05:16;3.90;;;1.80;;
69894;SDS011;57172;52.034;5.090;2023-09-18T15:07:44;4.25;;;1.80;;